createdAt,value
2022-08-03T00:00:37.845Z,85.80
2022-08-03T00:01:38.047Z,85.64
2022-08-03T00:02:38.296Z,86.00
2022-08-03T00:03:38.389Z,85.80
2022-08-03T00:04:39.557Z,85.70
2022-08-03T00:05:39.552Z,85.74
2022-08-03T00:06:38.955Z,85.80
2022-08-03T00:07:40.043Z,86.04
2022-08-03T00:08:40.257Z,85.64
2022-08-03T00:09:39.441Z,86.04
2022-08-03T00:10:40.546Z,86.54
2022-08-03T00:11:39.809Z,86.04
2022-08-03T00:12:39.977Z,86.65
2022-08-03T00:13:40.135Z,86.74
2022-08-03T00:14:41.046Z,86.14
2022-08-03T00:15:40.562Z,86.04
2022-08-03T00:16:40.713Z,86.34
2022-08-03T00:17:52.607Z,86.24
2022-08-03T00:18:42.548Z,86.74
2022-08-03T00:19:41.156Z,86.44
2022-08-03T00:20:41.365Z,86.04
2022-08-03T00:21:41.520Z,85.64
2022-08-03T00:22:42.575Z,85.94
2022-08-03T00:23:52.395Z,85.64
2022-08-03T00:24:43.560Z,86.24
2022-08-03T00:25:42.188Z,85.84
2022-08-03T00:26:42.361Z,85.94
2022-08-03T00:27:43.066Z,86.14
2022-08-03T00:28:43.066Z,86.65
2022-08-03T00:29:59.937Z,86.44
2022-08-03T00:30:44.029Z,86.68
2022-08-03T00:31:52.709Z,86.74
2022-08-03T00:32:45.368Z,86.14
2022-08-03T00:33:58.782Z,86.48
2022-08-03T00:34:57.769Z,86.79
2022-08-03T00:35:50.686Z,86.44
2022-08-03T00:36:45.055Z,86.65
2022-08-03T00:37:45.152Z,86.88
2022-08-03T00:38:45.071Z,85.88
2022-08-03T00:39:44.528Z,85.98
2022-08-03T00:40:45.073Z,86.79
2022-08-03T00:41:44.790Z,86.08
2022-08-03T00:42:45.559Z,85.88
2022-08-03T00:43:45.579Z,85.98
2022-08-03T00:44:46.057Z,85.68
2022-08-03T00:45:45.431Z,85.58
2022-08-03T00:46:45.583Z,85.88
2022-08-03T00:47:46.562Z,86.08
2022-08-03T00:48:46.077Z,85.94
2022-08-03T00:49:47.059Z,85.78
2022-08-03T00:50:46.299Z,86.04
2022-08-03T00:51:46.478Z,86.08
2022-08-03T00:52:46.615Z,85.78
2022-08-03T00:53:46.775Z,85.78
2022-08-03T00:54:46.925Z,85.98
2022-08-03T00:55:47.058Z,86.08
2022-08-03T00:56:59.728Z,86.68
2022-08-03T00:57:49.072Z,86.79
2022-08-03T00:58:48.075Z,86.28
2022-08-03T00:59:47.707Z,86.08
2022-08-03T01:00:48.594Z,86.08
2022-08-03T01:01:48.056Z,85.98
2022-08-03T01:02:48.578Z,86.68
2022-08-03T01:03:49.061Z,86.68
2022-08-03T01:04:49.076Z,86.79
2022-08-03T01:05:49.566Z,86.88
2022-08-03T01:06:49.085Z,86.68
2022-08-03T01:07:50.067Z,87.08
2022-08-03T01:08:49.455Z,87.29
2022-08-03T01:09:50.079Z,86.28
2022-08-03T01:10:50.082Z,86.48
2022-08-03T01:12:00.157Z,86.08
2022-08-03T01:12:51.232Z,86.08
2022-08-03T01:14:04.677Z,85.98
2022-08-03T01:14:52.088Z,86.08
2022-08-03T01:15:50.752Z,86.28
2022-08-03T01:16:50.973Z,86.28
2022-08-03T01:17:51.171Z,86.08
2022-08-03T01:18:52.101Z,86.32
2022-08-03T01:19:51.560Z,86.38
2022-08-03T01:20:51.763Z,86.32
2022-08-03T01:21:51.966Z,85.88
2022-08-03T01:22:53.077Z,86.48
2022-08-03T01:23:52.352Z,86.48
2022-08-03T01:25:25.945Z,86.72
2022-08-03T01:25:54.462Z,86.63
2022-08-03T01:26:52.822Z,87.08
2022-08-03T01:27:52.997Z,87.53
2022-08-03T01:28:53.143Z,87.13
2022-08-03T01:29:53.313Z,87.02
2022-08-03T01:30:54.108Z,87.23
2022-08-03T01:33:00.248Z,87.33
2022-08-03T01:33:01.174Z,87.02
2022-08-03T01:33:55.606Z,87.13
2022-08-03T01:34:54.117Z,87.43
2022-08-03T01:35:54.276Z,87.43
2022-08-03T01:36:54.451Z,87.87
2022-08-03T01:37:54.640Z,88.54
2022-08-03T01:38:54.812Z,87.93
2022-08-03T01:39:55.006Z,87.67
2022-08-03T01:40:56.115Z,87.63
2022-08-03T01:41:56.109Z,87.37
2022-08-03T01:42:55.503Z,87.27
2022-08-03T01:44:28.448Z,87.33
2022-08-03T01:44:56.902Z,87.23
2022-08-03T01:45:56.040Z,87.53
2022-08-03T01:46:56.626Z,87.73
2022-08-03T01:47:56.394Z,87.73
2022-08-03T01:48:57.196Z,87.83
2022-08-03T01:49:57.614Z,88.18
2022-08-03T01:50:56.991Z,88.84
2022-08-03T01:52:04.335Z,87.93
2022-08-03T01:52:58.381Z,87.87
2022-08-03T01:53:58.613Z,87.57
2022-08-03T01:54:57.846Z,87.98
2022-08-03T01:55:58.621Z,87.57
2022-08-03T01:56:58.279Z,88.28
2022-08-03T01:58:06.236Z,87.83
2022-08-03T01:58:59.605Z,87.37
2022-08-03T01:59:58.851Z,88.28
2022-08-03T02:00:59.033Z,87.17
2022-08-03T02:02:15.524Z,87.67
2022-08-03T02:03:00.353Z,87.37
2022-08-03T02:04:01.172Z,87.17
2022-08-03T02:05:00.640Z,87.67
2022-08-03T02:06:32.899Z,88.13
2022-08-03T02:07:03.458Z,88.18
2022-08-03T02:08:01.309Z,89.08
2022-08-03T02:09:01.119Z,87.87
2022-08-03T02:10:01.130Z,87.07
2022-08-03T02:11:00.892Z,86.97
2022-08-03T02:12:01.070Z,87.27
2022-08-03T02:13:01.249Z,87.63
2022-08-03T02:14:01.438Z,86.97
2022-08-03T02:15:01.600Z,86.77
2022-08-03T02:16:01.761Z,87.17
2022-08-03T02:17:01.943Z,87.27
2022-08-03T02:18:02.128Z,87.07
2022-08-03T02:19:03.139Z,87.37
2022-08-03T02:20:02.594Z,87.17
2022-08-03T02:21:02.714Z,87.27
2022-08-03T02:22:03.938Z,87.17
2022-08-03T02:23:03.632Z,87.47
2022-08-03T02:24:04.126Z,87.57
2022-08-03T02:25:03.643Z,87.37
2022-08-03T02:26:03.658Z,87.47
2022-08-03T02:27:03.892Z,87.77
2022-08-03T02:28:04.016Z,88.18
2022-08-03T02:29:04.134Z,88.38
2022-08-03T02:30:04.322Z,87.98
2022-08-03T02:31:04.466Z,87.37
2022-08-03T02:32:04.706Z,87.98
2022-08-03T02:33:04.830Z,87.87
2022-08-03T02:34:05.145Z,88.07
2022-08-03T02:35:05.155Z,87.77
2022-08-03T02:36:05.393Z,87.98
2022-08-03T02:37:05.509Z,88.34
2022-08-03T02:38:05.744Z,88.58
2022-08-03T02:39:05.894Z,88.28
2022-08-03T02:40:06.020Z,88.58
2022-08-03T02:41:07.146Z,88.58
2022-08-03T02:42:06.385Z,87.98
2022-08-03T02:43:07.128Z,87.98
2022-08-03T02:44:07.529Z,88.28
2022-08-03T02:45:08.105Z,88.28
2022-08-03T02:46:07.170Z,88.28
2022-08-03T02:47:07.321Z,87.98
2022-08-03T02:48:07.438Z,87.87
2022-08-03T02:49:42.676Z,88.18
2022-08-03T02:50:08.654Z,87.67
2022-08-03T02:51:08.633Z,87.57
2022-08-03T02:52:08.137Z,87.57
2022-08-03T02:53:09.247Z,87.77
2022-08-03T02:54:08.479Z,87.77
2022-08-03T02:55:08.649Z,87.47
2022-08-03T02:56:08.787Z,87.62
2022-08-03T02:57:09.638Z,87.47
2022-08-03T02:58:09.639Z,87.67
2022-08-03T02:59:10.138Z,87.17
2022-08-03T03:00:09.655Z,87.47
2022-08-03T03:01:09.709Z,87.37
2022-08-03T03:02:10.702Z,87.57
2022-08-03T03:03:10.150Z,87.92
2022-08-03T03:04:11.140Z,87.37
2022-08-03T03:05:55.754Z,87.51
2022-08-03T03:06:11.144Z,87.71
2022-08-03T03:07:10.766Z,88.22
2022-08-03T03:08:17.610Z,89.12
2022-08-03T03:09:12.194Z,89.03
2022-08-03T03:10:11.326Z,88.12
2022-08-03T03:11:11.498Z,87.82
2022-08-03T03:12:11.631Z,87.98
2022-08-03T03:13:11.817Z,88.12
2022-08-03T03:14:11.967Z,88.42
2022-08-03T03:15:12.643Z,88.68
2022-08-03T03:16:12.651Z,88.07
2022-08-03T03:17:12.406Z,88.88
2022-08-03T03:18:13.140Z,88.68
2022-08-03T03:19:12.806Z,88.98
2022-08-03T03:20:12.947Z,89.39
2022-08-03T03:21:13.086Z,88.07
2022-08-03T03:22:14.360Z,87.98
2022-08-03T03:23:13.423Z,87.98
2022-08-03T03:24:13.665Z,87.57
2022-08-03T03:25:13.785Z,87.47
2022-08-03T03:26:13.958Z,87.77
2022-08-03T03:27:16.667Z,87.37
2022-08-03T03:28:14.257Z,87.27
2022-08-03T03:29:14.427Z,87.47
2022-08-03T03:30:15.176Z,87.47
2022-08-03T03:31:14.818Z,87.77
2022-08-03T03:32:15.970Z,87.67
2022-08-03T03:33:15.162Z,87.57
2022-08-03T03:34:16.149Z,87.87
2022-08-03T03:35:15.584Z,87.77
2022-08-03T03:36:15.757Z,88.58
2022-08-03T03:37:15.904Z,88.28
2022-08-03T03:38:16.074Z,88.07
2022-08-03T03:39:17.179Z,88.38
2022-08-03T03:40:16.461Z,88.18
2022-08-03T03:41:16.598Z,88.18
2022-08-03T03:42:17.045Z,88.38
2022-08-03T03:43:16.948Z,88.98
2022-08-03T03:44:17.112Z,88.07
2022-08-03T03:45:17.279Z,88.07
2022-08-03T03:46:17.410Z,88.18
2022-08-03T03:47:17.550Z,88.07
2022-08-03T03:48:19.658Z,88.88
2022-08-03T03:49:17.913Z,88.94
2022-08-03T03:50:18.162Z,88.94
2022-08-03T03:51:18.306Z,89.08
2022-08-03T03:52:18.450Z,88.58
2022-08-03T03:53:18.594Z,88.88
2022-08-03T03:54:18.758Z,88.98
2022-08-03T03:55:18.992Z,88.88
2022-08-03T03:56:19.163Z,88.84
2022-08-03T03:57:20.156Z,88.84
2022-08-03T03:58:20.152Z,88.88
2022-08-03T03:59:19.685Z,88.74
2022-08-03T04:00:20.655Z,88.68
2022-08-03T04:01:20.116Z,88.74
2022-08-03T04:02:21.163Z,88.03
2022-08-03T04:03:21.154Z,88.23
2022-08-03T04:04:21.158Z,88.03
2022-08-03T04:05:20.778Z,88.43
2022-08-03T04:06:21.656Z,88.94
2022-08-03T04:07:21.123Z,88.94
2022-08-03T04:08:21.249Z,88.43
2022-08-03T04:09:21.493Z,89.04
2022-08-03T04:10:21.639Z,88.94
2022-08-03T04:11:29.031Z,88.94
2022-08-03T04:12:23.000Z,89.04
2022-08-03T04:13:23.156Z,89.04
2022-08-03T04:14:23.172Z,88.94
2022-08-03T04:15:22.534Z,88.94
2022-08-03T04:16:22.645Z,88.23
2022-08-03T04:17:22.876Z,88.03
2022-08-03T04:18:23.128Z,87.73
2022-08-03T04:19:23.586Z,88.13
2022-08-03T04:20:24.401Z,87.69
2022-08-03T04:21:23.603Z,87.29
2022-08-03T04:22:24.187Z,87.49
2022-08-03T04:23:24.180Z,87.19
2022-08-03T04:24:26.444Z,87.39
2022-08-03T04:25:25.162Z,87.49
2022-08-03T04:26:25.162Z,87.02
2022-08-03T04:27:25.167Z,86.52
2022-08-03T04:28:31.347Z,87.33
2022-08-03T04:29:26.668Z,87.08
2022-08-03T04:30:25.163Z,87.29
2022-08-03T04:31:26.165Z,87.19
2022-08-03T04:32:25.611Z,86.58
2022-08-03T04:33:26.177Z,87.08
2022-08-03T04:34:26.688Z,87.29
2022-08-03T04:36:02.266Z,87.29
2022-08-03T04:36:27.406Z,86.58
2022-08-03T04:37:26.546Z,87.24
2022-08-03T04:38:27.207Z,87.45
2022-08-03T04:39:26.869Z,86.38
2022-08-03T04:40:29.744Z,86.74
2022-08-03T04:41:27.193Z,86.44
2022-08-03T04:42:27.360Z,85.84
2022-08-03T04:43:27.679Z,84.89
2022-08-03T04:44:28.212Z,84.05
2022-08-03T04:45:28.673Z,83.01
2022-08-03T04:46:28.668Z,81.42
2022-08-03T04:47:29.176Z,80.38
2022-08-03T04:48:28.361Z,79.24
2022-08-03T04:49:28.532Z,78.91
2022-08-03T04:50:28.628Z,78.06
2022-08-03T04:51:28.806Z,77.56
2022-08-03T04:52:29.675Z,76.73
2022-08-03T04:53:29.232Z,76.33
2022-08-03T04:54:29.399Z,76.29
2022-08-03T04:55:29.617Z,76.09
2022-08-03T04:56:29.822Z,75.39
2022-08-03T04:57:30.674Z,75.19
2022-08-03T04:58:30.121Z,74.46
2022-08-03T04:59:30.681Z,74.16
2022-08-03T05:00:31.186Z,73.92
2022-08-03T05:01:30.791Z,74.52
2022-08-03T05:02:30.868Z,74.62
2022-08-03T05:03:31.044Z,74.72
2022-08-03T05:04:31.230Z,74.12
2022-08-03T05:05:37.873Z,74.02
2022-08-03T05:06:32.544Z,73.82
2022-08-03T05:07:35.643Z,73.99
2022-08-03T05:08:31.917Z,73.72
2022-08-03T05:09:49.759Z,73.49
2022-08-03T05:10:34.183Z,73.49
2022-08-03T05:11:32.692Z,73.58
2022-08-03T05:12:33.206Z,73.19
2022-08-03T05:13:33.818Z,73.58
2022-08-03T05:14:33.188Z,72.89
2022-08-03T05:15:34.188Z,72.89
2022-08-03T05:16:35.180Z,72.89
2022-08-03T05:17:33.516Z,73.09
2022-08-03T05:18:34.196Z,72.89
2022-08-03T05:19:33.937Z,72.65
2022-08-03T05:20:34.198Z,72.85
2022-08-03T05:21:41.683Z,73.15
2022-08-03T05:22:35.370Z,73.15
2022-08-03T05:23:34.599Z,72.95
2022-08-03T05:24:34.837Z,73.22
2022-08-03T05:25:35.232Z,73.02
2022-08-03T05:26:35.717Z,73.02
2022-08-03T05:27:35.345Z,73.52
2022-08-03T05:28:35.464Z,74.11
2022-08-03T05:29:35.614Z,73.22
2022-08-03T05:30:36.200Z,74.62
2022-08-03T05:31:35.958Z,74.71
2022-08-03T05:32:36.122Z,74.81
2022-08-03T05:33:36.277Z,75.41
2022-08-03T05:34:36.422Z,75.71
2022-08-03T05:36:00.462Z,75.81
2022-08-03T05:36:37.787Z,76.21
2022-08-03T05:37:37.043Z,77.25
2022-08-03T05:38:37.692Z,77.11
2022-08-03T05:39:37.303Z,77.11
2022-08-03T05:40:37.433Z,77.84
2022-08-03T05:41:37.690Z,77.55
2022-08-03T05:42:37.766Z,77.25
2022-08-03T05:43:37.898Z,78.04
2022-08-03T05:44:38.050Z,78.14
2022-08-03T05:45:38.692Z,78.04
2022-08-03T05:46:38.295Z,78.44
2022-08-03T05:47:38.416Z,78.34
2022-08-03T05:48:38.557Z,78.60
2022-08-03T05:49:38.739Z,78.80
2022-08-03T05:50:42.786Z,78.64
2022-08-03T05:51:40.083Z,79.04
2022-08-03T05:52:39.307Z,78.41
2022-08-03T05:53:39.422Z,78.54
2022-08-03T05:54:55.436Z,78.41
2022-08-03T05:55:40.793Z,77.84
2022-08-03T05:56:40.210Z,77.11
2022-08-03T05:57:40.215Z,77.21
2022-08-03T05:58:41.201Z,77.21
2022-08-03T05:59:41.193Z,77.31
2022-08-03T06:00:41.805Z,75.78
2022-08-03T06:01:41.276Z,76.07
2022-08-03T06:02:41.195Z,73.48
2022-08-03T06:03:42.234Z,72.75
2022-08-03T06:04:41.480Z,73.01
2022-08-03T06:05:43.215Z,71.12
2022-08-03T06:06:43.823Z,71.39
2022-08-03T06:07:42.046Z,70.79
2022-08-03T06:08:42.202Z,70.75
2022-08-03T06:10:36.674Z,69.85
2022-08-03T06:10:42.480Z,70.26
2022-08-03T06:11:42.625Z,69.36
2022-08-03T06:12:42.782Z,68.53
2022-08-03T06:13:43.923Z,69.03
2022-08-03T06:14:43.055Z,68.10
2022-08-03T06:15:43.706Z,67.70
2022-08-03T06:16:43.722Z,68.86
2022-08-03T06:17:43.471Z,68.16
2022-08-03T06:18:44.227Z,67.97
2022-08-03T06:19:43.786Z,67.67
2022-08-03T06:20:44.730Z,67.67
2022-08-03T06:21:44.231Z,66.38
2022-08-03T06:22:50.687Z,67.14
2022-08-03T06:23:53.927Z,67.44
2022-08-03T06:24:53.220Z,67.71
2022-08-03T06:25:46.220Z,67.04
2022-08-03T06:26:44.950Z,67.54
2022-08-03T06:27:45.099Z,66.85
2022-08-03T06:28:52.733Z,66.61
2022-08-03T06:29:46.475Z,66.61
2022-08-03T06:30:46.214Z,66.51
2022-08-03T06:31:46.712Z,65.72
2022-08-03T06:32:52.053Z,66.68
2022-08-03T06:33:48.326Z,66.68
2022-08-03T06:34:48.211Z,66.31
2022-08-03T06:35:46.442Z,65.82
2022-08-03T06:36:46.624Z,65.82
2022-08-03T06:37:46.753Z,65.82
2022-08-03T06:38:46.951Z,65.72
2022-08-03T06:39:47.111Z,66.91
2022-08-03T06:40:47.252Z,65.62
2022-08-03T06:41:48.235Z,66.48
2022-08-03T06:42:47.721Z,66.28
2022-08-03T06:44:02.527Z,66.38
2022-08-03T06:44:49.071Z,65.49
2022-08-03T06:45:48.737Z,64.89
2022-08-03T06:46:48.376Z,64.99
2022-08-03T06:47:48.530Z,64.20
2022-08-03T06:48:49.212Z,64.89
2022-08-03T06:50:14.272Z,64.70
2022-08-03T06:50:50.085Z,64.59
2022-08-03T06:52:03.277Z,64.50
2022-08-03T06:52:50.361Z,64.10
2022-08-03T06:53:50.221Z,64.10
2022-08-03T06:54:50.234Z,63.90
2022-08-03T06:55:54.374Z,64.27
2022-08-03T06:56:51.033Z,64.47
2022-08-03T06:57:50.187Z,63.87
2022-08-03T06:58:50.333Z,63.77
2022-08-03T07:00:09.402Z,63.28
2022-08-03T07:00:52.226Z,63.37
2022-08-03T07:01:50.881Z,62.48
2022-08-03T07:02:54.806Z,61.79
2022-08-03T07:03:53.207Z,62.78
2022-08-03T07:04:51.457Z,63.94
2022-08-03T07:05:51.606Z,62.45
2022-08-03T07:06:51.760Z,62.55
2022-08-03T07:07:52.778Z,62.75
2022-08-03T07:08:56.526Z,62.55
2022-08-03T07:09:55.006Z,62.42
2022-08-03T07:10:52.371Z,62.52
2022-08-03T07:11:52.520Z,60.74
2022-08-03T07:12:56.383Z,60.94
2022-08-03T07:13:52.865Z,61.63
2022-08-03T07:14:55.589Z,61.13
2022-08-03T07:15:56.527Z,61.33
2022-08-03T07:16:53.389Z,61.83
2022-08-03T07:17:53.534Z,61.90
2022-08-03T07:18:53.677Z,61.83
2022-08-03T07:19:54.792Z,62.39
2022-08-03T07:20:54.032Z,61.80
2022-08-03T07:21:54.144Z,61.50
2022-08-03T07:22:55.234Z,61.10
2022-08-03T07:23:55.226Z,60.02
2022-08-03T07:24:54.584Z,60.71
2022-08-03T07:25:54.723Z,60.41
2022-08-03T07:26:54.867Z,60.51
2022-08-03T07:27:54.994Z,59.92
2022-08-03T07:28:55.126Z,60.71
2022-08-03T07:29:55.361Z,60.24
2022-08-03T07:30:55.525Z,60.05
2022-08-03T07:31:56.230Z,59.84
2022-08-03T07:32:55.855Z,60.34
2022-08-03T07:33:55.995Z,59.55
2022-08-03T07:35:00.610Z,60.34
2022-08-03T07:35:58.289Z,59.65
2022-08-03T07:36:56.381Z,59.81
2022-08-03T07:37:57.219Z,60.51
2022-08-03T07:38:57.710Z,60.21
2022-08-03T07:39:57.629Z,60.21
2022-08-03T07:40:57.157Z,59.89
2022-08-03T07:41:57.282Z,60.78
2022-08-03T07:42:57.410Z,60.88
2022-08-03T07:43:58.255Z,59.56
2022-08-03T07:44:57.757Z,60.25
2022-08-03T07:45:58.758Z,59.27
2022-08-03T07:46:58.119Z,60.06
2022-08-03T07:47:58.273Z,58.97
2022-08-03T07:49:10.204Z,59.39
2022-08-03T07:50:01.263Z,60.08
2022-08-03T07:51:02.640Z,60.88
2022-08-03T07:52:00.781Z,60.97
2022-08-03T07:53:00.753Z,62.07
2022-08-03T07:53:59.372Z,61.44
2022-08-03T07:54:59.562Z,61.31
2022-08-03T07:56:00.241Z,59.53
2022-08-03T07:56:59.832Z,60.10
2022-08-03T07:58:01.014Z,59.70
2022-08-03T07:59:00.162Z,59.23
2022-08-03T08:00:02.480Z,59.63
2022-08-03T08:01:01.290Z,59.83
2022-08-03T08:02:00.759Z,59.33
2022-08-03T08:03:00.948Z,60.22
2022-08-03T08:04:01.826Z,60.32
2022-08-03T08:05:05.491Z,58.64
2022-08-03T08:06:02.507Z,59.17
2022-08-03T08:07:02.248Z,59.06
2022-08-03T08:08:01.885Z,59.27
2022-08-03T08:09:02.047Z,60.82
2022-08-03T08:10:03.209Z,59.27
2022-08-03T08:11:03.243Z,59.46
2022-08-03T08:12:03.255Z,59.49
2022-08-03T08:13:02.750Z,59.30
2022-08-03T08:14:02.942Z,60.08
2022-08-03T08:15:03.112Z,60.38
2022-08-03T08:16:03.252Z,60.35
2022-08-03T08:17:07.284Z,60.65
2022-08-03T08:18:05.255Z,61.15
2022-08-03T08:19:03.731Z,60.25
2022-08-03T08:20:04.259Z,60.35
2022-08-03T08:21:04.089Z,60.65
2022-08-03T08:22:05.250Z,60.25
2022-08-03T08:23:12.141Z,59.86
2022-08-03T08:24:10.750Z,60.25
2022-08-03T08:25:06.758Z,60.35
2022-08-03T08:26:05.025Z,60.42
2022-08-03T08:27:05.199Z,59.33
2022-08-03T08:28:29.039Z,60.22
2022-08-03T08:29:06.514Z,59.95
2022-08-03T08:30:11.499Z,59.27
2022-08-03T08:31:07.798Z,58.57
2022-08-03T08:32:05.958Z,59.23
2022-08-03T08:33:06.119Z,59.53
2022-08-03T08:34:07.253Z,60.03
2022-08-03T08:35:06.507Z,58.94
2022-08-03T08:36:06.681Z,59.23
2022-08-03T08:37:06.876Z,58.84
2022-08-03T08:38:07.052Z,59.44
2022-08-03T08:39:07.270Z,59.33
2022-08-03T08:40:07.440Z,58.25
2022-08-03T08:41:07.630Z,58.02
2022-08-03T08:42:07.796Z,58.91
2022-08-03T08:43:07.977Z,59.50
2022-08-03T08:44:08.182Z,59.60
2022-08-03T08:45:08.361Z,58.39
2022-08-03T08:46:08.680Z,59.11
2022-08-03T08:47:08.756Z,58.78
2022-08-03T08:48:09.302Z,58.00
2022-08-03T08:49:09.799Z,57.79
2022-08-03T08:50:14.847Z,58.59
2022-08-03T08:51:11.396Z,58.69
2022-08-03T08:52:25.306Z,58.00
2022-08-03T08:53:15.586Z,58.16
2022-08-03T08:54:10.925Z,58.09
2022-08-03T08:55:10.761Z,58.19
2022-08-03T08:56:10.306Z,58.29
2022-08-03T08:57:26.814Z,58.86
2022-08-03T08:58:12.645Z,58.46
2022-08-03T08:59:11.869Z,58.65
2022-08-03T09:00:11.027Z,58.06
2022-08-03T09:01:11.273Z,57.57
2022-08-03T09:02:12.354Z,57.60
2022-08-03T09:03:11.537Z,57.70
2022-08-03T09:04:13.268Z,58.09
2022-08-03T09:05:11.891Z,58.19
2022-08-03T09:06:12.091Z,58.59
2022-08-03T09:07:19.950Z,58.19
2022-08-03T09:08:14.398Z,58.78
2022-08-03T09:10:00.297Z,59.18
2022-08-03T09:10:14.007Z,58.78
2022-08-03T09:11:14.771Z,58.39
2022-08-03T09:12:37.580Z,58.49
2022-08-03T09:13:15.251Z,58.88
2022-08-03T09:14:37.254Z,58.29
2022-08-03T09:15:17.299Z,58.36
2022-08-03T09:16:14.759Z,57.87
2022-08-03T09:17:17.434Z,58.16
2022-08-03T09:18:14.098Z,57.67
2022-08-03T09:19:14.251Z,57.87
2022-08-03T09:20:15.318Z,57.87
2022-08-03T09:21:30.568Z,57.18
2022-08-03T09:22:17.318Z,56.09
2022-08-03T09:24:00.649Z,57.37
2022-08-03T09:24:31.236Z,56.88
2022-08-03T09:25:25.178Z,56.09
2022-08-03T09:26:17.660Z,56.29
2022-08-03T09:27:16.072Z,56.38
2022-08-03T09:28:32.367Z,56.78
2022-08-03T09:29:17.778Z,56.29
2022-08-03T09:30:33.707Z,56.26
2022-08-03T09:31:17.618Z,57.45
2022-08-03T09:32:16.717Z,56.33
2022-08-03T09:33:16.864Z,56.04
2022-08-03T09:34:17.101Z,56.23
2022-08-03T09:35:23.780Z,56.04
2022-08-03T09:36:19.303Z,56.04
2022-08-03T09:37:17.754Z,56.23
2022-08-03T09:38:17.689Z,55.94
2022-08-03T09:39:17.831Z,56.33
2022-08-03T09:40:17.984Z,55.64
2022-08-03T09:41:18.140Z,55.15
2022-08-03T09:42:18.551Z,54.55
2022-08-03T09:43:18.398Z,55.15
2022-08-03T09:44:25.834Z,55.94
2022-08-03T09:45:20.293Z,55.74
2022-08-03T09:46:18.907Z,55.64
2022-08-03T09:47:19.160Z,55.81
2022-08-03T09:48:19.802Z,55.71
2022-08-03T09:49:20.339Z,55.51
2022-08-03T09:50:20.283Z,55.41
2022-08-03T09:51:32.850Z,55.51
2022-08-03T09:52:32.046Z,54.72
2022-08-03T09:53:21.811Z,54.23
2022-08-03T09:54:20.784Z,55.41
2022-08-03T09:56:05.119Z,54.70
2022-08-03T09:56:34.033Z,55.71
2022-08-03T09:57:21.910Z,55.02
2022-08-03T09:58:21.153Z,55.91
2022-08-03T09:59:21.301Z,56.30
2022-08-03T10:00:21.453Z,55.12
2022-08-03T10:01:24.222Z,55.41
2022-08-03T10:02:22.292Z,55.68
2022-08-03T10:03:21.930Z,55.88
2022-08-03T10:04:22.091Z,56.08
2022-08-03T10:05:22.218Z,55.68
2022-08-03T10:06:22.388Z,54.80
2022-08-03T10:07:24.317Z,54.40
2022-08-03T10:08:22.680Z,54.70
2022-08-03T10:09:22.812Z,55.98
2022-08-03T10:10:30.858Z,55.16
2022-08-03T10:11:24.802Z,53.78
2022-08-03T10:12:23.406Z,53.49
2022-08-03T10:13:23.827Z,53.30
2022-08-03T10:14:23.809Z,53.00
2022-08-03T10:16:22.134Z,53.27
2022-08-03T10:16:25.726Z,52.78
2022-08-03T10:17:25.340Z,53.07
2022-08-03T10:18:24.594Z,53.86
2022-08-03T10:19:24.719Z,51.97
2022-08-03T10:20:25.801Z,52.95
2022-08-03T10:21:25.051Z,52.45
2022-08-03T10:22:25.842Z,50.98
2022-08-03T10:23:25.454Z,52.23
2022-08-03T10:24:25.567Z,51.86
2022-08-03T10:25:33.022Z,53.74
2022-08-03T10:26:27.314Z,52.65
2022-08-03T10:27:26.149Z,52.75
2022-08-03T10:28:26.367Z,52.09
2022-08-03T10:29:27.309Z,52.90
2022-08-03T10:30:26.786Z,53.69
2022-08-03T10:31:27.057Z,53.69
2022-08-03T10:32:27.164Z,53.69
2022-08-03T10:33:50.823Z,54.05
2022-08-03T10:34:28.624Z,53.76
2022-08-03T10:35:27.833Z,54.35
2022-08-03T10:36:28.941Z,53.27
2022-08-03T10:37:28.812Z,53.05
2022-08-03T10:38:28.292Z,53.44
2022-08-03T10:39:29.313Z,53.47
2022-08-03T10:40:59.023Z,53.36
2022-08-03T10:41:31.316Z,53.07
2022-08-03T10:42:29.003Z,52.97
2022-08-03T10:43:29.807Z,51.79
2022-08-03T10:44:30.314Z,52.68
2022-08-03T10:45:29.825Z,53.47
2022-08-03T10:46:29.696Z,52.97
2022-08-03T10:47:30.817Z,52.78
2022-08-03T10:48:30.173Z,53.24
2022-08-03T10:49:35.315Z,52.85
2022-08-03T10:50:31.565Z,52.26
2022-08-03T10:51:30.683Z,51.57
2022-08-03T10:52:33.853Z,52.85
2022-08-03T10:53:32.036Z,52.95
2022-08-03T10:54:31.309Z,53.05
2022-08-03T10:55:31.859Z,53.83
2022-08-03T10:56:48.116Z,53.83
2022-08-03T10:57:32.792Z,53.12
2022-08-03T10:58:32.327Z,53.05
2022-08-03T10:59:32.819Z,54.10
2022-08-03T11:00:32.867Z,52.80
2022-08-03T11:01:58.717Z,52.62
2022-08-03T11:02:33.734Z,52.50
2022-08-03T11:03:33.880Z,51.69
2022-08-03T11:04:33.823Z,50.51
2022-08-03T11:05:33.820Z,50.32
2022-08-03T11:06:37.394Z,50.71
2022-08-03T11:07:34.317Z,50.88
2022-08-03T11:08:33.705Z,50.61
2022-08-03T11:09:33.869Z,50.73
2022-08-03T11:10:34.045Z,52.48
2022-08-03T11:11:34.206Z,51.98
2022-08-03T11:12:34.365Z,51.59
2022-08-03T11:13:34.835Z,52.67
2022-08-03T11:14:34.707Z,52.58
2022-08-03T11:15:35.332Z,52.28
2022-08-03T11:16:35.113Z,51.89
2022-08-03T11:17:46.397Z,50.88
2022-08-03T11:18:37.330Z,52.06
2022-08-03T11:19:35.569Z,51.27
2022-08-03T11:20:36.833Z,51.67
2022-08-03T11:21:35.945Z,49.60
2022-08-03T11:22:36.113Z,49.99
2022-08-03T11:24:04.386Z,49.41
2022-08-03T11:24:38.332Z,50.68
2022-08-03T11:25:54.626Z,50.49
2022-08-03T11:26:37.931Z,50.39
2022-08-03T11:27:37.143Z,48.82
2022-08-03T11:28:37.283Z,49.41
2022-08-03T11:29:37.410Z,51.27
2022-08-03T11:30:37.571Z,52.35
2022-08-03T11:31:53.707Z,51.17
2022-08-03T11:32:39.914Z,50.76
2022-08-03T11:33:39.112Z,50.85
2022-08-03T11:34:38.326Z,50.76
2022-08-03T11:35:38.842Z,50.27
2022-08-03T11:36:38.847Z,50.95
2022-08-03T11:37:38.714Z,49.19
2022-08-03T11:38:39.929Z,49.29
2022-08-03T11:39:39.162Z,50.56
2022-08-03T11:40:39.266Z,49.75
2022-08-03T11:41:43.694Z,48.91
2022-08-03T11:42:41.357Z,50.81
2022-08-03T11:43:39.842Z,50.12
2022-08-03T11:44:39.960Z,51.00
2022-08-03T11:45:40.099Z,51.67
2022-08-03T11:46:40.238Z,50.19
2022-08-03T11:47:50.668Z,50.49
2022-08-03T11:48:41.571Z,51.64
2022-08-03T11:49:41.367Z,52.69
2022-08-03T11:50:41.839Z,50.51
2022-08-03T11:51:41.103Z,49.51
2022-08-03T11:52:41.255Z,51.37
2022-08-03T11:53:42.102Z,49.97
2022-08-03T11:54:41.625Z,49.11
2022-08-03T11:55:41.786Z,49.04
2022-08-03T11:56:41.954Z,48.45
2022-08-03T11:59:01.342Z,48.86
2022-08-03T11:59:01.933Z,48.67
2022-08-03T11:59:43.857Z,50.73
2022-08-03T12:00:42.895Z,49.55
2022-08-03T12:01:42.929Z,50.04
2022-08-03T12:02:43.939Z,50.51
2022-08-03T12:03:44.293Z,51.46
2022-08-03T12:04:44.340Z,49.11
2022-08-03T12:05:51.698Z,48.82
2022-08-03T12:06:47.408Z,49.31
2022-08-03T12:08:05.053Z,49.58
2022-08-03T12:08:45.846Z,47.72
2022-08-03T12:09:45.344Z,48.30
2022-08-03T12:10:44.894Z,47.06
2022-08-03T12:11:50.956Z,47.49
2022-08-03T12:12:46.876Z,49.55
2022-08-03T12:14:36.650Z,49.75
2022-08-03T12:14:50.842Z,49.95
2022-08-03T12:15:47.597Z,49.29
2022-08-03T12:16:45.826Z,50.56
2022-08-03T12:17:45.957Z,49.95
2022-08-03T12:18:46.230Z,50.04
2022-08-03T12:19:46.360Z,49.75
2022-08-03T12:20:46.503Z,50.63
2022-08-03T12:21:57.402Z,50.73
2022-08-03T12:22:47.768Z,49.65
2022-08-03T12:23:47.888Z,48.77
2022-08-03T12:24:48.037Z,49.16
2022-08-03T12:25:47.269Z,49.38
2022-08-03T12:26:58.489Z,48.99
2022-08-03T12:27:48.530Z,49.19
2022-08-03T12:28:49.801Z,49.60
2022-08-03T12:29:58.761Z,50.19
2022-08-03T12:30:49.045Z,50.09
2022-08-03T12:31:48.857Z,50.68
2022-08-03T12:32:48.506Z,49.01
2022-08-03T12:33:48.643Z,48.62
2022-08-03T12:34:49.359Z,48.72
2022-08-03T12:35:52.556Z,48.13
2022-08-03T12:36:49.869Z,48.94
2022-08-03T12:37:49.886Z,50.12
2022-08-03T12:38:49.531Z,50.71
2022-08-03T12:40:02.853Z,51.98
2022-08-03T12:40:50.928Z,52.18
2022-08-03T12:41:50.168Z,53.14
2022-08-03T12:42:50.370Z,51.79
2022-08-03T12:43:50.508Z,52.06
2022-08-03T12:44:50.645Z,51.27
2022-08-03T12:45:51.764Z,52.35
2022-08-03T12:46:50.900Z,50.29
2022-08-03T12:47:51.368Z,51.93
2022-08-03T12:48:51.883Z,51.81
2022-08-03T12:49:51.407Z,48.85
2022-08-03T12:50:53.596Z,47.57
2022-08-03T12:51:52.689Z,48.72
2022-08-03T12:52:51.927Z,48.60
2022-08-03T12:53:52.110Z,48.58
2022-08-03T12:54:52.295Z,48.19